Time,TemperatureF,DewpointF,PressureIn,WindDirection,WindDirectionDegrees,WindSpeedMPH,WindSpeedGustMPH,Humidity,HourlyPrecipIn,Conditions,Clouds,dailyrainin,SoftwareType,DateUTC
2013-02-04 00:21:00,65.0,36.0,30.01,NNE,20,2.0,12.0,34,0.00,,,-99.99,,2013-02-04 08:21:00,
2013-02-04 00:31:00,65.0,36.0,30.01,NNE,20,2.0,12.0,34,0.00,,,-99.99,,2013-02-04 08:31:00,
2013-02-04 01:21:00,64.0,36.0,30.00,NNE,20,13.0,15.0,35,0.00,,,-99.99,,2013-02-04 09:21:00,
2013-02-04 01:31:00,64.0,36.0,30.00,NNE,20,13.0,15.0,35,0.00,,,-99.99,,2013-02-04 09:31:00,
2013-02-04 01:41:00,64.0,36.0,30.00,NNE,20,13.0,15.0,35,0.00,,,-99.99,,2013-02-04 09:41:00,
2013-02-04 02:21:00,63.0,36.0,29.99,NNE,20,12.0,19.0,36,0.00,,,-99.99,,2013-02-04 10:21:00,
2013-02-04 02:32:00,63.0,36.0,29.99,NNE,20,12.0,19.0,36,0.00,,,-99.99,,2013-02-04 10:32:00,
2013-02-04 03:22:00,62.0,34.0,29.99,NE,40,3.0,10.0,35,0.00,,,-99.99,,2013-02-04 11:22:00,
2013-02-04 03:32:00,62.0,34.0,29.99,NE,40,3.0,10.0,35,0.00,,,-99.99,,2013-02-04 11:32:00,
2013-02-04 04:21:00,65.0,34.0,29.99,NE,40,4.0,16.0,32,0.00,,,-99.99,,2013-02-04 12:21:00,
2013-02-04 04:32:00,65.0,34.0,29.99,NE,40,4.0,16.0,32,0.00,,,-99.99,,2013-02-04 12:32:00,
2013-02-04 04:33:00,63.0,34.0,29.98,NNW,330,4.0,17.0,34,0.00,,,-99.99,,2013-02-04 12:33:00,
2013-02-04 05:21:00,63.0,34.0,29.98,NNW,330,4.0,17.0,34,0.00,,,-99.99,,2013-02-04 13:21:00,
2013-02-04 06:22:00,63.0,34.0,29.99,NNE,20,2.0,7.0,34,0.00,,,-99.99,,2013-02-04 14:22:00,
2013-02-04 06:32:00,63.0,34.0,29.99,NNE,20,2.0,7.0,34,0.00,,,-99.99,,2013-02-04 14:32:00,
2013-02-04 06:43:00,58.0,35.0,30.00,NNE,20,5.0,5.0,42,0.00,,,-99.99,,2013-02-04 14:43:00,
2013-02-04 07:23:00,58.0,35.0,30.00,NNE,20,5.0,5.0,42,0.00,,,-99.99,,2013-02-04 15:23:00,
2013-02-04 07:33:00,58.0,35.0,30.00,NNE,20,5.0,5.0,42,0.00,,,-99.99,,2013-02-04 15:33:00,
2013-02-04 10:22:00,71.0,34.0,30.03,NNE,30,3.0,14.0,26,0.00,,,-99.99,,2013-02-04 18:22:00,
2013-02-04 10:31:00,71.0,34.0,30.03,NNE,30,3.0,14.0,26,0.00,,,-99.99,,2013-02-04 18:31:00,
2013-02-04 10:41:00,71.0,34.0,30.03,NNE,30,3.0,14.0,26,0.00,,,-99.99,,2013-02-04 18:41:00,
2013-02-04 11:22:00,74.0,36.0,30.02,NNW,330,4.0,12.0,25,0.00,,,-99.99,,2013-02-04 19:22:00,
2013-02-04 11:31:00,74.0,36.0,30.02,NNW,330,4.0,12.0,25,0.00,,,-99.99,,2013-02-04 19:31:00,
2013-02-04 11:41:00,74.0,36.0,30.02,NNW,330,4.0,12.0,25,0.00,,,-99.99,,2013-02-04 19:41:00,
2013-02-04 11:42:00,76.0,36.0,29.99,West,280,5.0,8.0,23,0.00,,,-99.99,,2013-02-04 19:42:00,
2013-02-04 12:21:00,76.0,36.0,29.99,West,280,5.0,8.0,23,0.00,,,-99.99,,2013-02-04 20:21:00,
2013-02-04 12:32:00,76.0,36.0,29.99,West,280,5.0,8.0,23,0.00,,,-99.99,,2013-02-04 20:32:00,
2013-02-04 12:42:00,77.0,35.0,29.96,North,0,0.0,7.0,22,0.00,,,-99.99,,2013-02-04 20:42:00,
2013-02-04 13:22:00,77.0,35.0,29.96,North,0,0.0,7.0,22,0.00,,,-99.99,,2013-02-04 21:22:00,
2013-02-04 13:31:00,77.0,35.0,29.96,North,0,0.0,7.0,22,0.00,,,-99.99,,2013-02-04 21:31:00,
2013-02-04 14:21:00,78.0,30.0,29.93,East,80,8.0,18.0,17,0.00,,,-99.99,,2013-02-04 22:21:00,
2013-02-04 14:32:00,78.0,30.0,29.93,East,80,8.0,18.0,17,0.00,,,-99.99,,2013-02-04 22:32:00,
2013-02-04 14:41:00,78.0,30.0,29.93,East,80,8.0,18.0,17,0.00,,,-99.99,,2013-02-04 22:41:00,
2013-02-04 15:21:00,78.0,28.0,29.91,ENE,60,15.0,17.0,16,0.00,,,-99.99,,2013-02-04 23:21:00,
2013-02-04 15:32:00,78.0,28.0,29.91,ENE,60,15.0,17.0,16,0.00,,,-99.99,,2013-02-04 23:32:00,
2013-02-04 15:41:00,78.0,28.0,29.91,ENE,60,15.0,17.0,16,0.00,,,-99.99,,2013-02-04 23:41:00,
2013-02-04 16:21:00,78.0,31.0,29.91,NE,40,8.0,13.0,18,0.00,,,-99.99,,2013-02-05 00:21:00,
2013-02-04 16:31:00,78.0,31.0,29.91,NE,40,8.0,13.0,18,0.00,,,-99.99,,2013-02-05 00:31:00,
2013-02-04 16:42:00,78.0,31.0,29.91,NE,40,8.0,13.0,18,0.00,,,-99.99,,2013-02-05 00:42:00,
2013-02-04 17:21:00,76.0,31.0,29.90,NE,40,6.0,11.0,19,0.00,,,-99.99,,2013-02-05 01:21:00,
2013-02-04 17:32:00,76.0,31.0,29.90,NE,40,6.0,11.0,19,0.00,,,-99.99,,2013-02-05 01:32:00,
2013-02-04 17:42:00,76.0,31.0,29.90,NE,40,6.0,11.0,19,0.00,,,-99.99,,2013-02-05 01:42:00,
2013-02-04 18:21:00,72.0,31.0,29.92,NE,40,2.0,5.0,22,0.00,,,-99.99,,2013-02-05 02:21:00,
2013-02-04 18:31:00,72.0,31.0,29.92,NE,40,2.0,5.0,22,0.00,,,-99.99,,2013-02-05 02:31:00,
2013-02-04 18:41:00,72.0,31.0,29.92,NE,40,2.0,5.0,22,0.00,,,-99.99,,2013-02-05 02:41:00,
2013-02-04 19:21:00,71.0,30.0,29.93,NNE,30,6.0,8.0,22,0.00,,,-99.99,,2013-02-05 03:21:00,
2013-02-04 19:31:00,71.0,30.0,29.93,NNE,30,6.0,8.0,22,0.00,,,-99.99,,2013-02-05 03:31:00,
2013-02-04 19:42:00,71.0,30.0,29.93,NNE,30,6.0,8.0,22,0.00,,,-99.99,,2013-02-05 03:42:00,
2013-02-04 20:21:00,69.0,30.0,29.95,NNE,30,4.0,5.0,23,0.00,,,-99.99,,2013-02-05 04:21:00,
2013-02-04 20:32:00,69.0,30.0,29.95,NNE,30,4.0,5.0,23,0.00,,,-99.99,,2013-02-05 04:32:00,
2013-02-04 20:42:00,69.0,30.0,29.95,NNE,30,4.0,5.0,23,0.00,,,-99.99,,2013-02-05 04:42:00,
2013-02-04 21:21:00,65.0,34.0,29.97,North,0,0.0,4.0,31,0.00,,,-99.99,,2013-02-05 05:21:00,
2013-02-04 21:32:00,65.0,34.0,29.97,North,0,0.0,4.0,31,0.00,,,-99.99,,2013-02-05 05:32:00,
2013-02-04 21:42:00,65.0,34.0,29.97,North,0,0.0,4.0,31,0.00,,,-99.99,,2013-02-05 05:42:00,
2013-02-04 22:21:00,64.0,33.0,29.97,North,0,0.0,2.0,31,0.00,,,-99.99,,2013-02-05 06:21:00,
2013-02-04 22:32:00,64.0,33.0,29.97,North,0,0.0,2.0,31,0.00,,,-99.99,,2013-02-05 06:32:00,
2013-02-04 22:41:00,64.0,33.0,29.97,North,0,0.0,2.0,31,0.00,,,-99.99,,2013-02-05 06:41:00,
2013-02-04 23:22:00,63.0,27.0,29.97,NNE,30,2.0,4.0,25,0.00,,,-99.99,,2013-02-05 07:22:00,
2013-02-04 23:31:00,63.0,27.0,29.97,NNE,30,2.0,4.0,25,0.00,,,-99.99,,2013-02-05 07:31:00,
2013-02-04 23:41:00,63.0,27.0,29.97,NNE,30,2.0,4.0,25,0.00,,,-99.99,,2013-02-05 07:41:00,